Time;durP1;ratioP1;P1;durP2;ratioP2;P2;SDS_P1;SDS_P2;PMS_P1;PMS_P2;Temp;Humidity;BMP_temperature;BMP_pressure;BME280_temperature;BME280_humidity;BME280_pressure;Samples;Min_cycle;Max_cycle;Signal;HPM_P1;HPM_P2
2021/08/27 00:01:46;;;;;;;2.05;0.90;;;19.50;77.70;;;;;;4995692;28;20479;-70
2021/08/27 00:04:12;;;;;;;1.27;0.70;;;19.50;76.40;;;;;;4995679;28;20030;-66
2021/08/27 00:06:38;;;;;;;2.05;0.57;;;19.50;76.40;;;;;;4995526;28;20438;-70
2021/08/27 00:09:03;;;;;;;0.75;0.47;;;19.50;75.50;;;;;;4995356;28;20450;-71
2021/08/27 00:11:29;;;;;;;1.52;0.60;;;19.50;75.20;;;;;;4995627;28;20048;-70
2021/08/27 00:13:55;;;;;;;1.20;0.50;;;19.50;74.90;;;;;;4995499;28;20057;-70
2021/08/27 00:16:21;;;;;;;1.83;0.60;;;19.50;74.30;;;;;;4995291;28;20089;-71
2021/08/27 00:18:46;;;;;;;1.30;0.50;;;19.50;74.00;;;;;;4995413;28;20038;-71
2021/08/27 00:21:12;;;;;;;1.48;0.65;;;19.40;74.20;;;;;;4995420;28;20034;-71
2021/08/27 00:23:38;;;;;;;1.15;0.60;;;19.50;74.00;;;;;;4995168;28;20039;-71
2021/08/27 00:26:03;;;;;;;1.40;0.57;;;19.50;74.00;;;;;;4995416;28;20042;-71
2021/08/27 00:28:29;;;;;;;0.52;0.40;;;19.50;74.00;;;;;;4995266;28;20034;-68
2021/08/27 00:30:57;;;;;;;1.00;0.50;;;19.50;73.50;;;;;;4995117;28;20034;-69
2021/08/27 00:33:26;;;;;;;1.90;0.68;;;19.30;74.20;;;;;;4994947;28;20038;-71
2021/08/27 00:35:52;;;;;;;2.78;0.63;;;19.30;75.40;;;;;;4995000;28;20041;-70
2021/08/27 00:38:18;;;;;;;1.20;0.68;;;19.20;76.80;;;;;;4995155;28;20109;-70
2021/08/27 00:40:44;;;;;;;0.70;0.47;;;19.10;76.80;;;;;;4994752;28;20034;-70
2021/08/27 00:43:12;;;;;;;2.72;0.50;;;19.10;76.60;;;;;;4994829;28;20037;-70
2021/08/27 00:45:43;;;;;;;5.15;1.02;;;19.10;75.80;;;;;;4994388;28;20505;-70
2021/08/27 00:48:09;;;;;;;2.50;0.50;;;19.10;75.80;;;;;;4994990;28;20042;-71
2021/08/27 00:50:36;;;;;;;3.20;0.60;;;19.10;75.70;;;;;;4994874;28;20495;-71
2021/08/27 00:53:02;;;;;;;3.00;0.60;;;19.00;75.60;;;;;;4994757;28;20045;-70
2021/08/27 00:55:27;;;;;;;2.40;0.70;;;19.00;76.50;;;;;;4994864;28;20038;-70
2021/08/27 00:57:53;;;;;;;1.08;0.50;;;18.90;77.40;;;;;;4993309;28;20089;-70
2021/08/27 01:00:19;;;;;;;3.00;0.50;;;18.80;77.30;;;;;;4991552;28;20045;-71
2021/08/27 01:02:45;;;;;;;1.48;0.35;;;18.80;76.90;;;;;;4991723;28;20770;-70
2021/08/27 01:05:11;;;;;;;0.90;0.40;;;18.80;78.00;;;;;;4992902;28;20085;-69
2021/08/27 01:08:11;;;;;;;0.63;0.50;;;18.80;77.20;;;;;;4994452;28;20069;-70
2021/08/27 01:10:44;;;;;;;1.92;0.52;;;18.80;77.80;;;;;;4993741;28;20082;-70
2021/08/27 01:13:33;;;;;;;0.95;0.50;;;18.80;77.70;;;;;;4993908;28;20102;-71
2021/08/27 01:16:04;;;;;;;0.90;0.50;;;18.80;78.40;;;;;;4993312;28;20051;-70
2021/08/27 01:18:40;;;;;;;0.70;0.60;;;18.90;78.90;;;;;;4994033;28;20071;-71
2021/08/27 01:21:43;;;;;;;1.25;0.43;;;18.80;77.70;;;;;;4993740;28;20035;-70
2021/08/27 01:24:11;;;;;;;0.82;0.40;;;18.80;77.90;;;;;;4994005;28;20034;-71
2021/08/27 01:26:41;;;;;;;1.33;0.43;;;18.80;80.10;;;;;;4993966;28;20211;-71
2021/08/27 01:29:09;;;;;;;3.13;0.65;;;18.80;78.10;;;;;;4993736;28;20085;-71
2021/08/27 01:31:57;;;;;;;0.60;0.57;;;18.80;79.00;;;;;;4994073;28;20380;-70
2021/08/27 01:34:33;;;;;;;4.90;0.52;;;18.70;78.50;;;;;;4993788;28;20094;-71
2021/08/27 01:36:59;;;;;;;1.27;0.50;;;18.70;80.10;;;;;;4993674;28;20034;-70
2021/08/27 01:39:29;;;;;;;0.68;0.43;;;18.70;80.00;;;;;;4993648;28;20034;-70
2021/08/27 01:41:57;;;;;;;2.75;0.50;;;18.60;78.80;;;;;;4976116;28;20045;-70
2021/08/27 01:44:27;;;;;;;0.80;0.40;;;18.70;77.90;;;;;;4993735;28;20479;-71
2021/08/27 01:46:57;;;;;;;1.67;0.50;;;18.70;77.30;;;;;;4993552;28;20125;-70
2021/08/27 01:49:25;;;;;;;1.20;0.45;;;18.60;77.90;;;;;;4993788;28;20041;-70
2021/08/27 01:51:51;;;;;;;2.65;0.60;;;18.50;77.80;;;;;;4993505;28;20038;-70
2021/08/27 01:54:17;;;;;;;1.15;0.52;;;18.50;78.90;;;;;;4993537;28;20085;-70
2021/08/27 01:56:43;;;;;;;0.93;0.43;;;18.40;75.30;;;;;;4993829;28;20050;-71
2021/08/27 01:59:10;;;;;;;3.50;0.60;;;18.40;76.90;;;;;;4993436;28;20084;-71
2021/08/27 02:01:37;;;;;;;3.63;1.23;;;18.40;78.50;;;;;;4993851;28;20034;-70
2021/08/27 02:04:07;;;;;;;1.42;0.60;;;18.40;79.00;;;;;;4993756;28;20086;-70
2021/08/27 02:06:35;;;;;;;1.02;0.50;;;18.40;80.10;;;;;;4993743;28;20403;-71
2021/08/27 02:09:01;;;;;;;1.55;0.57;;;;;;;;;;4993879;28;20038;-70
2021/08/27 02:11:28;;;;;;;0.50;0.38;;;;;;;;;;4993728;28;20046;-70
2021/08/27 02:13:54;;;;;;;3.88;1.38;;;;;;;;;;4993652;28;20026;-70
2021/08/27 02:16:20;;;;;;;1.50;0.60;;;;;;;;;;4993556;28;20405;-70
2021/08/27 02:18:46;;;;;;;1.30;0.63;;;;;;;;;;4993539;28;20027;-70
2021/08/27 02:21:12;;;;;;;3.28;0.50;;;18.40;80.60;;;;;;4992211;28;20034;-70
2021/08/27 02:23:41;;;;;;;3.85;0.45;;;18.30;81.70;;;;;;4993158;28;20030;-71
2021/08/27 02:26:07;;;;;;;2.42;0.45;;;18.30;79.50;;;;;;4993489;28;20061;-69
2021/08/27 02:28:35;;;;;;;7.93;0.75;;;18.30;80.80;;;;;;4993581;28;20038;-71
2021/08/27 02:31:01;;;;;;;2.05;0.50;;;18.30;81.50;;;;;;4993357;28;20042;-69
2021/08/27 02:33:28;;;;;;;2.03;0.60;;;;;;;;;;4993400;28;20105;-70
2021/08/27 02:35:55;;;;;;;2.15;0.60;;;;;;;;;;4993020;28;20093;-72
2021/08/27 02:38:22;;;;;;;0.40;0.30;;;;;;;;;;4993166;28;20031;-69
2021/08/27 02:40:49;;;;;;;0.80;0.52;;;;;;;;;;4993312;28;20085;-71
2021/08/27 02:43:15;;;;;;;3.28;0.60;;;18.40;81.50;;;;;;4993291;28;20041;-70
2021/08/27 02:45:41;;;;;;;1.40;0.40;;;18.50;80.40;;;;;;4993088;28;20030;-70
2021/08/27 02:48:07;;;;;;;1.15;0.40;;;18.50;80.70;;;;;;4993089;28;20038;-71
2021/08/27 02:50:46;;;;;;;0.73;0.43;;;18.50;80.80;;;;;;4992944;28;20023;-70
2021/08/27 02:53:19;;;;;;;0.75;0.50;;;18.60;80.10;;;;;;4975815;28;20038;-72
2021/08/27 02:55:50;;;;;;;1.95;0.60;;;18.60;81.30;;;;;;4993358;28;20038;-72
2021/08/27 02:58:18;;;;;;;2.97;0.60;;;;;;;;;;4993017;28;20058;-70
2021/08/27 03:00:51;;;;;;;2.15;0.40;;;;;;;;;;4993205;28;20057;-71
2021/08/27 03:03:19;;;;;;;0.35;0.35;;;;;;;;;;4995217;28;20028;-71
2021/08/27 03:05:45;;;;;;;2.72;0.47;;;;;;;;;;4996585;28;20145;-70
2021/08/27 03:08:19;;;;;;;1.25;0.30;;;;;;;;;;4996643;28;20037;-70
2021/08/27 03:11:05;;;;;;;0.55;0.50;;;;;;;;;;4996751;28;20454;-71
2021/08/27 03:13:39;;;;;;;2.15;0.50;;;;;;;;;;4982903;28;20085;-70
2021/08/27 03:16:06;;;;;;;1.58;0.60;;;;;;;;;;4996716;28;20046;-71
2021/08/27 03:18:38;;;;;;;1.48;0.55;;;;;;;;;;4996500;28;20085;-71
2021/08/27 03:21:19;;;;;;;0.80;0.32;;;;;;;;;;4996375;28;20033;-71
2021/08/27 03:23:48;;;;;;;2.05;1.05;;;18.70;80.00;;;;;;4996368;28;20479;-70
2021/08/27 03:26:19;;;;;;;0.47;0.47;;;18.60;80.10;;;;;;4996238;28;20054;-70
2021/08/27 03:28:46;;;;;;;1.95;0.70;;;;;;;;;;4996318;28;20081;-71
2021/08/27 03:31:12;;;;;;;3.03;0.70;;;;;;;;;;4996281;28;20038;-71
2021/08/27 03:33:39;;;;;;;1.77;0.70;;;;;;;;;;4996164;28;20035;-71
2021/08/27 03:36:05;;;;;;;1.88;0.55;;;;;;;;;;4996188;28;20034;-71
2021/08/27 03:38:31;;;;;;;2.17;0.52;;;;;;;;;;4996218;28;20042;-71
2021/08/27 03:40:58;;;;;;;5.50;0.70;;;;;;;;;;4996041;28;20031;-71
2021/08/27 03:43:24;;;;;;;1.40;0.60;;;;;;;;;;4995908;28;20118;-71
2021/08/27 03:45:52;;;;;;;3.95;0.68;;;;;;;;;;4995816;28;20455;-71
2021/08/27 03:48:21;;;;;;;1.42;0.60;;;;;;;;;;4995962;28;20035;-71
2021/08/27 03:50:52;;;;;;;1.20;0.63;;;;;;;;;;4995790;28;20043;-71
2021/08/27 03:53:18;;;;;;;2.65;0.70;;;;;;;;;;4995801;28;20485;-71
2021/08/27 03:55:47;;;;;;;0.90;0.63;;;;;;;;;;4995881;28;20038;-70
2021/08/27 03:58:15;;;;;;;1.02;0.60;;;;;;;;;;4996015;28;20030;-71
2021/08/27 04:00:41;;;;;;;2.75;0.65;;;;;;;;;;4995681;28;20038;-70
2021/08/27 04:03:07;;;;;;;1.33;0.75;;;;;;;;;;4995683;28;20038;-71
2021/08/27 04:05:33;;;;;;;1.17;0.70;;;;;;;;;;4995535;28;20049;-71
2021/08/27 04:07:59;;;;;;;1.65;0.70;;;;;;;;;;4995513;28;20431;-69
2021/08/27 04:10:26;;;;;;;2.08;0.90;;;;;;;;;;4995543;28;20046;-70
2021/08/27 04:12:52;;;;;;;1.40;0.80;;;;;;;;;;4995500;28;20045;-71
2021/08/27 04:15:22;;;;;;;3.80;0.88;;;18.50;79.60;;;;;;4994300;28;20034;-71
2021/08/27 04:17:48;;;;;;;2.03;0.73;;;18.30;81.40;;;;;;4995236;28;20045;-71
2021/08/27 04:20:14;;;;;;;1.38;0.80;;;18.20;82.80;;;;;;4995261;28;20026;-70
2021/08/27 04:22:40;;;;;;;5.90;0.80;;;18.20;81.60;;;;;;4995439;28;20501;-71
2021/08/27 04:25:06;;;;;;;6.75;0.90;;;18.20;80.80;;;;;;4995099;28;20034;-71
2021/08/27 04:27:32;;;;;;;4.53;0.90;;;18.20;81.70;;;;;;4995196;28;20047;-70
2021/08/27 04:29:57;;;;;;;2.83;0.82;;;18.20;80.70;;;;;;4995159;28;20034;-71
2021/08/27 04:32:23;;;;;;;2.03;0.80;;;18.20;81.80;;;;;;4995046;28;20084;-71
2021/08/27 04:34:49;;;;;;;1.58;0.90;;;18.20;82.60;;;;;;4994948;28;20081;-71
2021/08/27 04:37:14;;;;;;;2.47;1.00;;;18.20;81.20;;;;;;4995073;28;20054;-71
2021/08/27 04:39:40;;;;;;;2.25;0.82;;;18.10;82.30;;;;;;4995137;28;20117;-71
2021/08/27 04:42:06;;;;;;;1.15;0.80;;;18.20;82.30;;;;;;4994705;28;20090;-70
2021/08/27 04:44:31;;;;;;;1.90;0.90;;;18.10;82.10;;;;;;4994772;28;20031;-71
2021/08/27 04:46:57;;;;;;;2.45;0.90;;;18.20;82.00;;;;;;4994690;28;20054;-70
2021/08/27 04:49:23;;;;;;;2.40;0.90;;;18.20;81.90;;;;;;4994731;28;20032;-70
2021/08/27 04:51:50;;;;;;;3.63;1.02;;;18.20;81.80;;;;;;4994812;28;20042;-70
2021/08/27 04:54:15;;;;;;;2.80;0.88;;;18.20;82.30;;;;;;4994692;28;20036;-71
2021/08/27 04:56:41;;;;;;;6.95;1.00;;;18.20;81.30;;;;;;4994630;28;20047;-69
2021/08/27 04:59:07;;;;;;;2.28;1.08;;;18.20;82.50;;;;;;4994462;28;20038;-70
2021/08/27 05:01:33;;;;;;;1.95;1.13;;;18.20;81.70;;;;;;4994705;28;20041;-70
2021/08/27 05:03:59;;;;;;;3.42;0.93;;;18.20;82.50;;;;;;4994730;28;20035;-71
2021/08/27 05:06:25;;;;;;;1.85;1.02;;;18.20;82.30;;;;;;4994485;28;20145;-71
2021/08/27 05:08:50;;;;;;;2.83;1.60;;;18.20;82.20;;;;;;4994583;28;20042;-70
2021/08/27 05:11:16;;;;;;;2.28;1.20;;;18.20;83.30;;;;;;4994417;28;20491;-71
2021/08/27 05:13:42;;;;;;;4.70;1.20;;;18.30;82.10;;;;;;4994438;28;20030;-69
2021/08/27 05:16:08;;;;;;;1.60;0.95;;;18.30;81.90;;;;;;4994194;28;20483;-70
2021/08/27 05:18:33;;;;;;;4.22;1.20;;;18.30;81.40;;;;;;4994425;28;20029;-70
2021/08/27 05:21:00;;;;;;;1.30;0.88;;;18.30;80.70;;;;;;4994517;28;20038;-71
2021/08/27 05:23:25;;;;;;;2.92;1.08;;;18.40;79.80;;;;;;4994356;28;20035;-70
2021/08/27 05:25:52;;;;;;;3.42;1.10;;;18.40;81.30;;;;;;4993910;28;20058;-70
2021/08/27 05:28:18;;;;;;;2.45;1.20;;;18.30;80.50;;;;;;4994349;28;20039;-71
2021/08/27 05:30:44;;;;;;;3.67;1.25;;;18.30;81.20;;;;;;4993835;28;20395;-71
2021/08/27 05:33:10;;;;;;;3.65;1.30;;;18.30;82.40;;;;;;4993917;28;20441;-71
2021/08/27 05:35:36;;;;;;;3.33;1.20;;;18.30;82.40;;;;;;4994112;28;20113;-71
2021/08/27 05:38:01;;;;;;;9.40;1.10;;;18.40;82.50;;;;;;4994322;28;20034;-71
2021/08/27 05:40:27;;;;;;;1.90;1.20;;;18.40;80.30;;;;;;4993989;28;20471;-70
2021/08/27 05:42:53;;;;;;;2.47;1.20;;;18.40;80.50;;;;;;4994050;28;20077;-71
2021/08/27 05:45:19;;;;;;;1.85;1.20;;;18.40;81.40;;;;;;4994038;28;20030;-70
2021/08/27 05:47:45;;;;;;;6.93;1.30;;;18.40;82.10;;;;;;4993707;28;20034;-71
2021/08/27 05:50:14;;;;;;;5.00;2.28;;;18.40;82.30;;;;;;4993668;28;20045;-70
2021/08/27 05:52:39;;;;;;;2.72;1.27;;;18.40;81.60;;;;;;4993850;28;20077;-70
2021/08/27 05:55:06;;;;;;;3.08;1.30;;;18.40;82.10;;;;;;4993966;28;20038;-70
2021/08/27 05:57:32;;;;;;;2.00;1.25;;;18.40;82.50;;;;;;4994083;28;20085;-71
2021/08/27 05:59:58;;;;;;;1.60;1.10;;;18.50;83.60;;;;;;4993506;28;20058;-71
2021/08/27 06:02:24;;;;;;;2.55;1.52;;;18.50;81.80;;;;;;4993930;28;20077;-70
2021/08/27 06:04:49;;;;;;;2.03;1.08;;;18.60;82.20;;;;;;4993816;28;20038;-71
2021/08/27 06:07:15;;;;;;;1.88;1.10;;;18.60;81.10;;;;;;4993789;28;20129;-67
2021/08/27 06:09:42;;;;;;;2.20;1.10;;;18.60;80.60;;;;;;4993817;28;20133;-69
2021/08/27 06:12:08;;;;;;;5.63;1.20;;;18.60;81.10;;;;;;4993574;28;20117;-70
2021/08/27 06:14:34;;;;;;;2.88;0.90;;;18.60;80.60;;;;;;4993558;28;20081;-70
2021/08/27 06:17:00;;;;;;;3.10;1.10;;;18.60;80.70;;;;;;4993595;28;20038;-71
2021/08/27 06:19:25;;;;;;;1.50;1.00;;;18.60;81.40;;;;;;4993776;28;20050;-70
2021/08/27 06:21:51;;;;;;;3.47;1.15;;;18.60;78.80;;;;;;4993671;28;20038;-70
2021/08/27 06:24:17;;;;;;;1.30;1.00;;;18.60;79.50;;;;;;4993418;28;20081;-70
2021/08/27 06:26:43;;;;;;;3.42;1.10;;;18.50;78.20;;;;;;4993144;28;20103;-70
2021/08/27 06:29:08;;;;;;;2.20;1.10;;;18.50;80.40;;;;;;4993638;28;20039;-71
2021/08/27 06:31:34;;;;;;;3.00;0.90;;;18.50;79.90;;;;;;4993561;28;20031;-71
2021/08/27 06:34:00;;;;;;;2.08;0.88;;;18.60;78.30;;;;;;4993492;28;20034;-71
2021/08/27 06:36:26;;;;;;;1.95;1.17;;;18.60;79.00;;;;;;4993142;28;20505;-70
2021/08/27 06:38:51;;;;;;;2.08;1.05;;;18.60;78.30;;;;;;4996735;28;20418;-71
2021/08/27 06:41:17;;;;;;;2.58;1.00;;;18.60;79.40;;;;;;4997399;28;20038;-71
2021/08/27 06:43:45;;;;;;;1.20;1.05;;;18.60;79.80;;;;;;4997263;28;20118;-70
2021/08/27 06:46:20;;;;;;;1.55;1.08;;;18.60;81.60;;;;;;4997002;28;20072;-71
2021/08/27 06:48:46;;;;;;;1.52;1.00;;;18.70;80.90;;;;;;4996968;28;20042;-71
2021/08/27 06:51:12;;;;;;;2.80;1.10;;;18.80;81.00;;;;;;4997237;28;20493;-70
2021/08/27 06:53:38;;;;;;;1.10;0.85;;;18.90;79.10;;;;;;4997447;28;20046;-71
2021/08/27 06:56:04;;;;;;;2.03;0.80;;;18.90;79.30;;;;;;4996853;28;20042;-71
2021/08/27 06:58:31;;;;;;;1.27;0.80;;;19.00;79.20;;;;;;4996790;28;20038;-71
2021/08/27 07:00:57;;;;;;;1.83;1.00;;;19.00;77.80;;;;;;4996811;28;20116;-71
2021/08/27 07:03:23;;;;;;;1.77;1.10;;;19.10;77.30;;;;;;4996657;28;20026;-71
2021/08/27 07:05:49;;;;;;;3.00;1.05;;;19.10;75.80;;;;;;4996792;28;20039;-72
2021/08/27 07:08:15;;;;;;;2.42;1.20;;;19.10;74.70;;;;;;4996762;28;20525;-70
2021/08/27 07:10:41;;;;;;;1.92;1.08;;;19.20;76.00;;;;;;4996534;28;20042;-71
2021/08/27 07:13:06;;;;;;;3.78;1.10;;;19.20;76.30;;;;;;4996690;28;20168;-71
2021/08/27 07:15:33;;;;;;;2.20;1.20;;;19.30;75.00;;;;;;4996477;28;20113;-72
2021/08/27 07:17:59;;;;;;;2.15;1.35;;;19.30;73.10;;;;;;4997242;28;20496;-72
2021/08/27 07:20:25;;;;;;;2.78;1.23;;;19.40;73.50;;;;;;4996466;28;20105;-71
2021/08/27 07:22:50;;;;;;;2.30;1.30;;;19.50;74.50;;;;;;4996459;28;20057;-71
2021/08/27 07:25:16;;;;;;;2.38;1.40;;;19.50;73.50;;;;;;4996476;28;20427;-71
2021/08/27 07:27:42;;;;;;;1.95;1.33;;;19.50;69.90;;;;;;4996211;28;20101;-68
2021/08/27 07:30:09;;;;;;;3.90;1.30;;;19.60;70.70;;;;;;4996037;28;20105;-70
2021/08/27 07:32:36;;;;;;;4.35;1.40;;;19.70;73.10;;;;;;4996182;28;21243;-70
2021/08/27 07:35:03;;;;;;;1.70;1.33;;;;;;;;;;4996161;28;20050;-71
2021/08/27 07:37:29;;;;;;;1.88;1.35;;;19.80;69.80;;;;;;4996217;28;20030;-71
2021/08/27 07:39:55;;;;;;;2.05;1.40;;;19.90;69.40;;;;;;4996466;28;20042;-70
2021/08/27 07:42:21;;;;;;;2.20;1.50;;;19.90;69.40;;;;;;4996087;28;20026;-72
2021/08/27 07:44:47;;;;;;;3.45;1.50;;;20.00;66.90;;;;;;4996016;28;20042;-72
2021/08/27 07:47:13;;;;;;;2.05;1.40;;;20.00;68.30;;;;;;4996074;28;20042;-71
2021/08/27 07:49:38;;;;;;;1.80;1.38;;;19.90;66.30;;;;;;4995963;28;20112;-71
2021/08/27 07:52:04;;;;;;;4.57;1.50;;;20.00;66.70;;;;;;4995752;28;20472;-71
2021/08/27 07:54:30;;;;;;;2.40;1.52;;;20.10;67.60;;;;;;4996077;28;20475;-71
2021/08/27 10:58:55;;;;;;;2.45;2.00;;;24.90;38.90;;;;;;5022904;28;20061;-65
2021/08/27 11:01:35;;;;;;;2.95;1.83;;;;;;;;;;5013729;28;20120;-65
2021/08/27 11:04:04;;;;;;;2.40;1.90;;;25.10;38.00;;;;;;5015337;28;20125;-65
2021/08/27 11:06:43;;;;;;;2.55;1.80;;;25.10;37.50;;;;;;5016057;28;20042;-70
2021/08/27 11:09:17;;;;;;;2.85;2.00;;;25.00;37.20;;;;;;5016591;28;20112;-71
2021/08/27 11:11:43;;;;;;;2.83;2.17;;;25.10;39.00;;;;;;5016336;28;20552;-71
2021/08/27 11:14:20;;;;;;;2.65;2.10;;;25.30;40.20;;;;;;5016264;28;20042;-70
2021/08/27 11:16:57;;;;;;;2.05;1.77;;;25.30;36.20;;;;;;5016135;28;20037;-69
2021/08/27 11:19:44;;;;;;;2.17;1.70;;;25.30;38.50;;;;;;5016293;28;20041;-69
2021/08/27 11:22:10;;;;;;;3.83;1.80;;;25.40;37.90;;;;;;5016139;28;20034;-69
2021/08/27 11:24:39;;;;;;;3.22;2.10;;;25.50;37.80;;;;;;5012361;28;20052;-71
2021/08/27 11:27:09;;;;;;;3.53;2.00;;;25.60;39.90;;;;;;5012895;28;20196;-69
2021/08/27 11:29:38;;;;;;;3.20;1.98;;;25.80;37.70;;;;;;5013896;28;20030;-71
2021/08/27 11:32:16;;;;;;;2.47;1.70;;;25.80;37.20;;;;;;5015756;28;20042;-70
2021/08/27 11:34:52;;;;;;;5.88;1.73;;;25.90;39.30;;;;;;5015910;28;20034;-71
2021/08/27 11:37:23;;;;;;;2.97;2.08;;;26.10;38.40;;;;;;5015765;28;20038;-70
2021/08/27 11:39:50;;;;;;;6.75;1.70;;;26.20;36.70;;;;;;5015725;28;20034;-70
2021/08/27 11:42:17;;;;;;;2.78;2.10;;;26.30;38.00;;;;;;5015669;28;20443;-70
2021/08/27 11:44:44;;;;;;;3.20;1.70;;;;;;;;;;5015712;28;20089;-69
2021/08/27 11:47:14;;;;;;;2.45;1.80;;;26.50;35.50;;;;;;5015422;28;20526;-70
2021/08/27 11:49:55;;;;;;;3.25;2.00;;;26.40;36.20;;;;;;5015786;28;20030;-68
2021/08/27 11:52:31;;;;;;;3.28;1.90;;;26.40;38.60;;;;;;5015677;28;20041;-68
2021/08/27 11:55:03;;;;;;;2.42;1.77;;;26.50;38.30;;;;;;5015337;28;20483;-72
2021/08/27 11:57:29;;;;;;;2.72;1.83;;;26.70;38.10;;;;;;5015557;28;20132;-71
2021/08/27 12:00:11;;;;;;;2.60;1.98;;;26.90;35.40;;;;;;5015338;28;20112;-71
2021/08/27 12:02:37;;;;;;;;;;;27.00;36.50;;;;;;5015944;28;20109;-72
2021/08/27 12:05:05;;;;;;;2.83;1.90;;;26.80;34.80;;;;;;5015361;28;19999;-70
2021/08/27 12:07:34;;;;;;;2.33;1.70;;;26.80;37.20;;;;;;5015308;28;20037;-71
2021/08/27 12:10:12;;;;;;;4.45;1.92;;;26.70;36.40;;;;;;5015093;28;20382;-71
2021/08/27 12:12:43;;;;;;;2.60;2.00;;;26.80;37.20;;;;;;5015285;28;20038;-71
2021/08/27 12:15:29;;;;;;;2.75;1.90;;;26.80;36.90;;;;;;5015032;28;20393;-70
2021/08/27 12:17:59;;;;;;;3.15;1.80;;;26.70;36.40;;;;;;5015357;28;20034;-70
2021/08/27 12:20:30;;;;;;;4.20;2.00;;;26.50;37.10;;;;;;5015073;28;20030;-71
2021/08/27 12:23:10;;;;;;;3.42;1.85;;;26.40;36.70;;;;;;5015133;28;20030;-70
2021/08/27 12:25:43;;;;;;;2.15;1.70;;;26.30;36.90;;;;;;5014644;28;20040;-72
2021/08/27 12:28:18;;;;;;;4.75;1.90;;;26.40;37.80;;;;;;5014959;28;20046;-71
2021/08/27 12:30:53;;;;;;;2.92;2.15;;;26.30;34.80;;;;;;5014817;28;20034;-71
2021/08/27 12:33:19;;;;;;;2.58;1.92;;;26.20;35.90;;;;;;5014850;28;20038;-70
2021/08/27 12:35:47;;;;;;;3.70;2.00;;;26.00;37.00;;;;;;5013920;28;20052;-70
2021/08/27 12:38:16;;;;;;;3.33;1.85;;;25.90;38.20;;;;;;5014645;28;20501;-71
2021/08/27 12:40:41;;;;;;;3.05;2.10;;;25.80;37.10;;;;;;5014831;28;20056;-70
2021/08/27 12:43:09;;;;;;;4.05;1.63;;;25.80;37.80;;;;;;5014426;28;20089;-69
2021/08/27 12:45:50;;;;;;;2.10;1.70;;;25.60;36.30;;;;;;5014512;28;20026;-68
2021/08/27 12:48:18;;;;;;;2.97;2.03;;;25.50;39.00;;;;;;5014394;28;20042;-71
2021/08/27 12:50:53;;;;;;;4.50;1.83;;;25.40;40.60;;;;;;5014252;28;20080;-67
2021/08/27 12:53:30;;;;;;;3.05;2.00;;;25.40;41.00;;;;;;5014343;28;20064;-70
2021/08/27 12:56:15;;;;;;;2.70;1.90;;;25.30;39.60;;;;;;5014564;28;20066;-70
2021/08/27 12:58:44;;;;;;;4.13;2.20;;;25.20;40.40;;;;;;5014489;28;20073;-70
2021/08/27 13:01:22;;;;;;;3.72;2.22;;;25.00;40.30;;;;;;5014347;28;20418;-71
2021/08/27 13:03:50;;;;;;;4.38;2.25;;;25.00;42.70;;;;;;5014315;28;20411;-70
2021/08/27 13:06:32;;;;;;;2.50;1.90;;;25.00;41.20;;;;;;5014048;28;20081;-70
2021/08/27 13:09:05;;;;;;;;;;;25.00;41.90;;;;;;5014598;28;20034;-69
2021/08/27 13:12:04;;;;;;;3.03;2.33;;;25.00;41.80;;;;;;5014020;28;19906;-70
2021/08/27 13:14:34;;;;;;;2.72;2.20;;;25.10;42.90;;;;;;5014032;28;20038;-70
2021/08/27 13:17:00;;;;;;;2.72;2.10;;;25.20;43.20;;;;;;5013942;28;20089;-70
2021/08/27 13:19:55;;;;;;;3.58;2.33;;;25.30;43.50;;;;;;5014040;28;20061;-70
2021/08/27 13:22:28;;;;;;;3.88;2.17;;;25.40;42.40;;;;;;5013829;28;20034;-69
2021/08/27 13:25:09;;;;;;;4.40;2.08;;;25.70;42.60;;;;;;4996106;28;20034;-68
2021/08/27 13:27:36;;;;;;;3.08;2.10;;;25.90;42.40;;;;;;5013713;28;20181;-70
2021/08/27 13:30:08;;;;;;;4.38;2.33;;;26.10;40.80;;;;;;5013784;28;20096;-70
2021/08/27 13:32:42;;;;;;;2.67;2.28;;;26.30;39.70;;;;;;5013894;28;20044;-69
2021/08/27 13:35:11;;;;;;;4.15;2.40;;;26.40;39.30;;;;;;5013509;28;20037;-68
2021/08/27 13:37:38;;;;;;;3.60;2.10;;;26.40;39.80;;;;;;5013788;28;20413;-70
2021/08/27 13:40:04;;;;;;;5.28;2.15;;;26.50;39.90;;;;;;5013842;28;20537;-70
2021/08/27 13:42:30;;;;;;;4.40;2.05;;;26.60;41.10;;;;;;5013593;28;20034;-69
2021/08/27 13:44:55;;;;;;;2.40;1.85;;;26.60;39.90;;;;;;5013294;28;20397;-71
2021/08/27 13:47:23;;;;;;;4.38;2.00;;;26.50;40.00;;;;;;5013131;28;20056;-71
2021/08/27 13:49:49;;;;;;;4.03;2.00;;;26.40;39.10;;;;;;5014004;28;20034;-71
2021/08/27 13:52:15;;;;;;;2.33;1.98;;;26.20;40.20;;;;;;5013715;28;20574;-70
2021/08/27 13:54:40;;;;;;;6.07;2.25;;;26.10;39.20;;;;;;5013358;28;20034;-70
2021/08/27 13:57:06;;;;;;;4.30;2.08;;;26.00;40.10;;;;;;5013727;28;20034;-70
2021/08/27 13:59:32;;;;;;;1.95;1.67;;;25.80;40.20;;;;;;5013195;28;20046;-70
2021/08/27 14:01:57;;;;;;;2.90;2.05;;;25.80;40.90;;;;;;5013360;28;20121;-68
2021/08/27 14:04:23;;;;;;;2.60;2.15;;;25.70;40.80;;;;;;5013557;28;20077;-71
2021/08/27 14:06:48;;;;;;;4.47;2.28;;;25.60;40.60;;;;;;5013177;28;20046;-69
2021/08/27 14:09:14;;;;;;;2.40;1.88;;;25.50;41.70;;;;;;5013338;28;20478;-70
2021/08/27 14:11:41;;;;;;;3.22;1.92;;;25.50;41.50;;;;;;5013327;28;20038;-71
2021/08/27 14:14:06;;;;;;;2.88;2.13;;;25.40;39.80;;;;;;5013050;28;20030;-70
2021/08/27 14:16:33;;;;;;;6.43;2.28;;;;;;;;;;5013022;28;20037;-69
2021/08/27 14:18:59;;;;;;;5.70;2.40;;;;;;;;;;5013145;28;20038;-70
2021/08/27 14:21:25;;;;;;;2.70;2.20;;;;;;;;;;5013271;28;20057;-70
2021/08/27 14:23:51;;;;;;;3.60;1.88;;;;;;;;;;5013150;28;20030;-67
2021/08/27 14:26:17;;;;;;;2.63;2.25;;;;;;;;;;5013108;28;20046;-70
2021/08/27 14:28:43;;;;;;;2.67;2.15;;;;;;;;;;5013099;28;20042;-71
2021/08/27 14:31:10;;;;;;;3.03;2.30;;;;;;;;;;5013005;28;20387;-71
2021/08/27 14:33:37;;;;;;;4.97;2.03;;;;;;;;;;5013065;28;20049;-70
2021/08/27 14:36:03;;;;;;;2.60;1.88;;;;;;;;;;5012959;28;20026;-69
2021/08/27 14:38:29;;;;;;;3.50;2.20;;;;;;;;;;5013077;28;20076;-71
2021/08/27 14:40:55;;;;;;;4.65;2.05;;;;;;;;;;5013088;28;20042;-71
2021/08/27 14:43:22;;;;;;;2.78;2.00;;;;;;;;;;5012997;28;20033;-71
2021/08/27 14:45:48;;;;;;;2.40;2.15;;;;;;;;;;5012930;28;20033;-71
2021/08/27 14:48:14;;;;;;;5.18;2.28;;;;;;;;;;5012929;28;20030;-71
2021/08/27 14:50:40;;;;;;;3.20;1.90;;;;;;;;;;5013017;28;20391;-71
2021/08/27 14:53:06;;;;;;;2.78;2.13;;;;;;;;;;5012915;28;20034;-71
2021/08/27 14:55:32;;;;;;;6.68;2.20;;;;;;;;;;5012843;28;20068;-71
2021/08/27 14:57:58;;;;;;;3.35;1.88;;;;;;;;;;5012927;28;20113;-70
2021/08/27 15:00:24;;;;;;;3.75;2.08;;;;;;;;;;5016359;28;20034;-71
2021/08/27 15:02:50;;;;;;;3.30;2.10;;;;;;;;;;5016471;28;20034;-71
2021/08/27 15:05:16;;;;;;;3.25;2.10;;;;;;;;;;5016301;28;20034;-72
2021/08/27 15:07:42;;;;;;;2.50;1.80;;;;;;;;;;5016331;28;20042;-71
2021/08/27 15:10:09;;;;;;;2.90;2.00;;;;;;;;;;5016136;28;20030;-70
2021/08/27 15:12:35;;;;;;;2.30;1.75;;;;;;;;;;5016350;28;20037;-69
2021/08/27 15:15:01;;;;;;;2.50;1.95;;;;;;;;;;5016527;28;20038;-71
2021/08/27 15:17:27;;;;;;;3.58;2.20;;;;;;;;;;5016326;28;20081;-71
2021/08/27 15:19:53;;;;;;;2.75;2.10;;;;;;;;;;5016373;28;20399;-70
2021/08/27 15:22:19;;;;;;;4.20;2.22;;;;;;;;;;5016055;28;20038;-70
2021/08/27 15:24:45;;;;;;;2.75;1.90;;;;;;;;;;5015960;28;20033;-70
2021/08/27 15:27:11;;;;;;;2.30;1.85;;;;;;;;;;5015970;28;20050;-65
2021/08/27 15:29:39;;;;;;;3.40;1.83;;;;;;;;;;5015971;28;20041;-66
2021/08/27 15:32:05;;;;;;;3.42;2.33;;;;;;;;;;5016044;28;20038;-65
2021/08/27 15:34:31;;;;;;;2.88;2.30;;;;;;;;;;5016016;28;20038;-66
2021/08/27 15:36:57;;;;;;;3.20;2.42;;;;;;;;;;5016107;28;20042;-66
2021/08/27 15:39:23;;;;;;;4.38;2.00;;;;;;;;;;5015709;28;20040;-68
2021/08/27 15:41:49;;;;;;;2.88;1.90;;;;;;;;;;5015664;28;20457;-66
2021/08/27 15:44:15;;;;;;;3.00;2.05;;;;;;;;;;5015867;28;20033;-67
2021/08/27 15:46:41;;;;;;;2.40;2.00;;;;;;;;;;5015642;28;20398;-66
2021/08/27 15:49:07;;;;;;;2.78;2.03;;;;;;;;;;5015764;28;20052;-65
2021/08/27 15:51:33;;;;;;;3.05;2.00;;;;;;;;;;5015386;28;20037;-65
2021/08/27 15:54:00;;;;;;;3.25;2.20;;;;;;;;;;5015442;28;20048;-66
2021/08/27 15:56:27;;;;;;;3.65;1.98;;;;;;;;;;5015473;28;20060;-66
2021/08/27 15:58:53;;;;;;;3.65;1.95;;;;;;;;;;5015302;28;20130;-66
2021/08/27 16:01:19;;;;;;;3.15;2.10;;;;;;;;;;5015226;28;20030;-65
2021/08/27 16:03:47;;;;;;;2.38;1.80;;;;;;;;;;5015363;28;20034;-65
2021/08/27 16:06:13;;;;;;;2.80;2.20;;;;;;;;;;5015012;28;20045;-65
2021/08/27 16:08:39;;;;;;;3.47;2.38;;;;;;;;;;5015250;28;20070;-66
2021/08/27 16:11:05;;;;;;;2.60;1.83;;;;;;;;;;5015186;28;20045;-65
2021/08/27 16:13:31;;;;;;;4.68;2.03;;;;;;;;;;5015052;28;20038;-67
2021/08/27 16:15:57;;;;;;;3.65;1.88;;;;;;;;;;5014977;28;20042;-66
2021/08/27 16:18:24;;;;;;;3.47;2.10;;;;;;;;;;5015234;28;20038;-66
2021/08/27 16:20:50;;;;;;;2.72;1.95;;;;;;;;;;5015020;28;20040;-65
2021/08/27 16:23:17;;;;;;;1.95;1.67;;;;;;;;;;5015036;28;20161;-69
2021/08/27 16:25:43;;;;;;;2.47;1.80;;;;;;;;;;5014854;28;20030;-66